Dennis Ross — WDB7118 — position and weather

sailwx.info

Track history (hours):
 
Tides and Currents Weather Stations Pressure Air Temp Water Temp Dewpoint Dewpoint Depression Visibility Wind Speed Wind Dir Waves Ship Positions

Dennis Ross

Owner: Magnolia Marine Transport Co, Vicksburg, MS. More information available from US FCC via Universal Licensing System and Coast Guard Vessel Documentation Center.

Last reported at 2018-May-05 06:18 UTC. Time now 2018-May-22 21:38 UTC.
Position N 32°50' W 091°09'.
Warning: this ship's position is 17 days out of date.

Length 62 m; draft 3 m.

Type: Towing. MMSI: 366936680.

Date/timePositionNaut miles runAvg speedWind from/ knotsBaromVisibWave heightAir tempDewpointWater temp
2018-May-05 06:18N 32°50' W 091°09'3 4.1
2018-May-05 05:30N 32°46' W 091°09'7 1.9
2018-May-05 01:48N 32°39' W 091°09'3 5.7
2018-May-05 01:21N 32°37' W 091°09'2 5.0
2018-May-05 01:00N 32°35' W 091°08'2 4.0
2018-May-05 00:30N 32°34' W 091°06'2 3.9
2018-May-05 00:00N 32°32' W 091°06'2 4.6
2018-May-04 23:30N 32°30' W 091°07'2 3.5
2018-May-04 23:00N 32°28' W 091°06'2 4.5
2018-May-04 22:30N 32°27' W 091°04'2 4.2
2018-May-04 22:00N 32°26' W 091°02'2 4.0
2018-May-04 21:30N 32°25' W 090°60'2 3.6
2018-May-04 21:00N 32°23' W 090°60'2 3.5
2018-May-04 20:30N 32°21' W 090°60'2 4.3
2018-May-04 20:00N 32°21' W 090°57'2 4.0
2018-May-04 19:30N 32°20' W 090°55'2 3.0
2018-May-04 19:00N 32°19' W 090°55'1 1.9
2018-May-04 18:30N 32°18' W 090°55'0 0.1
2018-May-04 18:00N 32°18' W 090°55'0 0.0
2018-May-04 17:30N 32°18' W 090°55'0 0.0
2018-May-04 17:00N 32°18' W 090°55'0 0.0
2018-May-04 16:30N 32°18' W 090°55'0 0.0
2018-May-04 16:00N 32°18' W 090°55'0 0.0
2018-May-04 15:30N 32°18' W 090°55'0 0.0
2018-May-04 15:00N 32°18' W 090°55'0 0.0
2018-May-04 14:30N 32°18' W 090°55'2 3.4
2018-May-04 14:00N 32°17' W 090°57'0 0.6
2018-May-04 13:30N 32°17' W 090°57'2 3.1
2018-May-04 13:00N 32°15' W 090°58'2 4.1
2018-May-04 12:30N 32°14' W 090°59'2 4.1
2018-May-04 11:56N 32°11' W 090°59'2 3.6
2018-May-04 11:30N 32°10' W 090°60'2 4.4
2018-May-04 10:59N 32°08' W 091°01'2 3.6
2018-May-04 10:20N 32°08' W 091°03'2 4.2
2018-May-04 09:53N 32°08' W 091°05'  
2018-Apr-26 19:10N 32°01' W 091°04'210.2
2018-Apr-26 18:59N 32°03' W 091°03'4 8.0
2018-Apr-26 18:29N 32°06' W 091°06'3 6.0
2018-Apr-26 18:01N 32°07' W 091°03'4 7.4
2018-Apr-26 17:30N 32°10' W 090°60'5 9.3
2018-Apr-26 17:00N 32°15' W 090°59'4 8.7
2018-Apr-26 16:30N 32°18' W 090°55'4 8.4
2018-Apr-26 16:00N 32°22' W 090°53'1 1.3
2018-Apr-26 15:25N 32°22' W 090°53'0 0.0
2018-Apr-26 14:58N 32°22' W 090°53'0 0.0
2018-Apr-26 14:28N 32°22' W 090°53'0 0.0
2018-Apr-26 13:58N 32°22' W 090°53'0 0.0
2018-Apr-26 13:28N 32°22' W 090°53'0 0.0
2018-Apr-26 12:58N 32°22' W 090°53'0 0.2
2018-Apr-26 12:30N 32°22' W 090°53'1 1.5
2018-Apr-26 11:58N 32°23' W 090°53'0 0.0
2018-Apr-26 11:28N 32°23' W 090°53'0 0.0
2018-Apr-26 10:58N 32°23' W 090°53'0 0.3
2018-Apr-26 10:28N 32°23' W 090°53'0 0.4
2018-Apr-26 10:00N 32°23' W 090°53'2 4.2
2018-Apr-26 09:31N 32°21' W 090°53'2 4.5
2018-Apr-26 09:00N 32°19' W 090°54'2 4.6
2018-Apr-26 08:31N 32°17' W 090°56'2 3.8
2018-Apr-26 08:00N 32°16' W 090°58'2 3.9
2018-Apr-26 07:30N 32°14' W 090°59'2 4.2
2018-Apr-26 07:00N 32°12' W 090°59'2 3.9
2018-Apr-26 06:31N 32°10' W 090°60'2 3.9
2018-Apr-26 06:01N 32°08' W 091°00'5 3.6
2018-Apr-26 04:38N 32°08' W 091°06'1 3.9
2018-Apr-26 04:31N 32°07' W 091°06'5 4.3
2018-Apr-26 03:21N 32°03' W 091°04'2 4.8
2018-Apr-26 03:00N 32°01' W 091°04'  
Track history (hours):
 
Tides and Currents Weather Stations Pressure Air Temp Water Temp Dewpoint Dewpoint Depression Visibility Wind Speed Wind Dir Waves Ship Positions

Dennis Ross

Owner: Magnolia Marine Transport Co, Vicksburg, MS. More information available from US FCC via Universal Licensing System and Coast Guard Vessel Documentation Center.

Last reported at 2018-May-05 06:18 UTC. Time now 2018-May-22 21:38 UTC.
Position N 32°50' W 091°09'.
Warning: this ship's position is 17 days out of date.

Length 62 m; draft 3 m.

Type: Towing. MMSI: 366936680.

Date/timePositionNaut miles runAvg speedWind from/ knotsBaromVisibWave heightAir tempDewpointWater temp
2018-May-05 06:18N 32°50' W 091°09'3 4.1
2018-May-05 05:30N 32°46' W 091°09'7 1.9
2018-May-05 01:48N 32°39' W 091°09'3 5.7
2018-May-05 01:21N 32°37' W 091°09'2 5.0
2018-May-05 01:00N 32°35' W 091°08'2 4.0
2018-May-05 00:30N 32°34' W 091°06'2 3.9
2018-May-05 00:00N 32°32' W 091°06'2 4.6
2018-May-04 23:30N 32°30' W 091°07'2 3.5
2018-May-04 23:00N 32°28' W 091°06'2 4.5
2018-May-04 22:30N 32°27' W 091°04'2 4.2
2018-May-04 22:00N 32°26' W 091°02'2 4.0
2018-May-04 21:30N 32°25' W 090°60'2 3.6
2018-May-04 21:00N 32°23' W 090°60'2 3.5
2018-May-04 20:30N 32°21' W 090°60'2 4.3
2018-May-04 20:00N 32°21' W 090°57'2 4.0
2018-May-04 19:30N 32°20' W 090°55'2 3.0
2018-May-04 19:00N 32°19' W 090°55'1 1.9
2018-May-04 18:30N 32°18' W 090°55'0 0.1
2018-May-04 18:00N 32°18' W 090°55'0 0.0
2018-May-04 17:30N 32°18' W 090°55'0 0.0
2018-May-04 17:00N 32°18' W 090°55'0 0.0
2018-May-04 16:30N 32°18' W 090°55'0 0.0
2018-May-04 16:00N 32°18' W 090°55'0 0.0
2018-May-04 15:30N 32°18' W 090°55'0 0.0
2018-May-04 15:00N 32°18' W 090°55'0 0.0
2018-May-04 14:30N 32°18' W 090°55'2 3.4
2018-May-04 14:00N 32°17' W 090°57'0 0.6
2018-May-04 13:30N 32°17' W 090°57'2 3.1
2018-May-04 13:00N 32°15' W 090°58'2 4.1
2018-May-04 12:30N 32°14' W 090°59'2 4.1
2018-May-04 11:56N 32°11' W 090°59'2 3.6
2018-May-04 11:30N 32°10' W 090°60'2 4.4
2018-May-04 10:59N 32°08' W 091°01'2 3.6
2018-May-04 10:20N 32°08' W 091°03'2 4.2
2018-May-04 09:53N 32°08' W 091°05'  
2018-Apr-26 19:10N 32°01' W 091°04'210.2
2018-Apr-26 18:59N 32°03' W 091°03'4 8.0
2018-Apr-26 18:29N 32°06' W 091°06'3 6.0
2018-Apr-26 18:01N 32°07' W 091°03'4 7.4
2018-Apr-26 17:30N 32°10' W 090°60'5 9.3
2018-Apr-26 17:00N 32°15' W 090°59'4 8.7
2018-Apr-26 16:30N 32°18' W 090°55'4 8.4
2018-Apr-26 16:00N 32°22' W 090°53'1 1.3
2018-Apr-26 15:25N 32°22' W 090°53'0 0.0
2018-Apr-26 14:58N 32°22' W 090°53'0 0.0
2018-Apr-26 14:28N 32°22' W 090°53'0 0.0
2018-Apr-26 13:58N 32°22' W 090°53'0 0.0
2018-Apr-26 13:28N 32°22' W 090°53'0 0.0
2018-Apr-26 12:58N 32°22' W 090°53'0 0.2
2018-Apr-26 12:30N 32°22' W 090°53'1 1.5
2018-Apr-26 11:58N 32°23' W 090°53'0 0.0
2018-Apr-26 11:28N 32°23' W 090°53'0 0.0
2018-Apr-26 10:58N 32°23' W 090°53'0 0.3
2018-Apr-26 10:28N 32°23' W 090°53'0 0.4
2018-Apr-26 10:00N 32°23' W 090°53'2 4.2
2018-Apr-26 09:31N 32°21' W 090°53'2 4.5
2018-Apr-26 09:00N 32°19' W 090°54'2 4.6
2018-Apr-26 08:31N 32°17' W 090°56'2 3.8
2018-Apr-26 08:00N 32°16' W 090°58'2 3.9
2018-Apr-26 07:30N 32°14' W 090°59'2 4.2
2018-Apr-26 07:00N 32°12' W 090°59'2 3.9
2018-Apr-26 06:31N 32°10' W 090°60'2 3.9
2018-Apr-26 06:01N 32°08' W 091°00'5 3.6
2018-Apr-26 04:38N 32°08' W 091°06'1 3.9
2018-Apr-26 04:31N 32°07' W 091°06'5 4.3
2018-Apr-26 03:21N 32°03' W 091°04'2 4.8
2018-Apr-26 03:00N 32°01' W 091°04'  

Dump ship's entire track history